createdAt,value
2018-01-18T00:01:56.680Z,17.38
2018-01-18T00:04:22.485Z,17.38
2018-01-18T00:06:48.254Z,17.32
2018-01-18T00:09:14.069Z,17.34
2018-01-18T00:11:39.840Z,17.41
2018-01-18T00:14:06.448Z,17.39
2018-01-18T00:16:32.262Z,17.32
2018-01-18T00:18:58.029Z,17.39
2018-01-18T00:21:24.825Z,17.31
2018-01-18T00:23:51.549Z,17.46
2018-01-18T00:26:17.364Z,17.36
2018-01-18T00:28:43.137Z,17.34
2018-01-18T00:31:08.949Z,17.32
2018-01-18T00:33:34.721Z,17.49
2018-01-18T00:36:00.541Z,17.53
2018-01-18T00:38:27.161Z,17.47
2018-01-18T00:40:52.986Z,17.60
2018-01-18T00:43:18.754Z,17.63
2018-01-18T00:45:45.483Z,17.52
2018-01-18T00:48:11.282Z,17.54
2018-01-18T00:50:37.585Z,17.42
2018-01-18T00:53:03.369Z,17.37
2018-01-18T00:55:30.001Z,17.53
2018-01-18T00:57:55.764Z,17.65
2018-01-18T01:00:21.601Z,17.57
2018-01-18T01:02:47.377Z,17.50
2018-01-18T01:05:14.090Z,17.41
2018-01-18T01:07:39.913Z,17.46
2018-01-18T01:10:05.671Z,17.29
2018-01-18T01:12:32.287Z,17.45
2018-01-18T01:14:58.952Z,17.42
2018-01-18T01:17:25.747Z,17.49
2018-01-18T01:19:52.436Z,17.42
2018-01-18T01:22:19.232Z,17.20
2018-01-18T01:24:45.958Z,17.29
2018-01-18T01:27:12.767Z,17.29
2018-01-18T01:29:39.575Z,17.28
2018-01-18T01:32:06.315Z,17.29
2018-01-18T01:34:32.092Z,17.32
2018-01-18T01:36:57.855Z,17.23
2018-01-18T01:39:24.627Z,17.26
2018-01-18T01:41:50.433Z,17.32
2018-01-18T01:44:16.193Z,17.27
2018-01-18T01:46:42.945Z,17.29
2018-01-18T01:49:09.665Z,17.35
2018-01-18T01:51:35.605Z,17.25
2018-01-18T01:54:02.268Z,17.18
2018-01-18T01:56:28.037Z,17.25
2018-01-18T01:58:53.812Z,17.22
2018-01-18T02:01:20.512Z,17.42
2018-01-18T02:03:46.276Z,17.40
2018-01-18T02:06:12.049Z,17.26
2018-01-18T02:08:37.873Z,17.30
2018-01-18T02:11:04.671Z,17.23
2018-01-18T02:13:31.382Z,17.16
2018-01-18T02:15:57.156Z,17.23
2018-01-18T02:18:22.929Z,17.21
2018-01-18T02:20:48.700Z,17.35
2018-01-18T02:23:15.500Z,17.46
2018-01-18T02:25:41.304Z,17.17
2018-01-18T02:28:08.060Z,17.19
2018-01-18T02:30:33.824Z,17.19
2018-01-18T02:32:59.590Z,17.27
2018-01-18T02:35:25.474Z,17.17
2018-01-18T02:37:52.089Z,17.40
2018-01-18T02:40:18.809Z,17.48
2018-01-18T02:42:44.588Z,17.40
2018-01-18T02:45:10.359Z,17.46
2018-01-18T02:47:36.165Z,17.48
2018-01-18T02:50:01.941Z,17.39
2018-01-18T02:52:27.705Z,17.48
2018-01-18T02:54:53.473Z,17.32
2018-01-18T02:57:19.284Z,17.40
2018-01-18T02:59:45.049Z,17.48
2018-01-18T03:02:10.821Z,17.48
2018-01-18T03:04:36.600Z,17.40
2018-01-18T03:07:02.368Z,17.37
2018-01-18T03:09:28.133Z,17.40
2018-01-18T03:11:54.849Z,17.31
2018-01-18T03:14:20.613Z,17.31
2018-01-18T03:16:46.389Z,17.32
2018-01-18T03:19:12.205Z,17.44
2018-01-18T03:21:37.973Z,17.40
2018-01-18T03:24:03.754Z,17.41
2018-01-18T03:26:29.531Z,17.31
2018-01-18T03:28:55.301Z,17.26
2018-01-18T03:31:21.074Z,17.22
2018-01-18T03:33:46.845Z,17.22
2018-01-18T03:36:13.417Z,17.37
2018-01-18T03:38:39.190Z,17.33
2018-01-18T03:41:04.961Z,17.37
2018-01-18T03:43:30.733Z,17.26
2018-01-18T03:45:57.322Z,17.27
2018-01-18T03:48:23.096Z,17.19
2018-01-18T03:50:48.872Z,17.22
2018-01-18T03:53:14.700Z,17.27
2018-01-18T03:55:40.461Z,17.18
2018-01-18T03:58:06.229Z,17.27
2018-01-18T04:00:32.782Z,17.10
2018-01-18T04:02:58.670Z,17.20
2018-01-18T04:05:24.436Z,17.23
2018-01-18T04:07:50.205Z,17.28
2018-01-18T04:10:16.825Z,17.28
2018-01-18T04:12:42.601Z,17.16
2018-01-18T04:15:08.489Z,17.12
2018-01-18T04:17:34.304Z,17.13
2018-01-18T04:20:00.870Z,17.15
2018-01-18T04:22:26.642Z,17.25
2018-01-18T04:24:52.462Z,17.21
2018-01-18T04:27:19.201Z,17.32
2018-01-18T04:29:44.977Z,17.26
2018-01-18T04:32:10.778Z,17.13
2018-01-18T04:34:36.544Z,17.22
2018-01-18T04:37:02.351Z,17.17
2018-01-18T04:39:28.129Z,17.20
2018-01-18T04:41:54.927Z,17.28
2018-01-18T04:44:20.699Z,17.40
2018-01-18T04:46:46.509Z,17.29
2018-01-18T04:49:12.318Z,17.34
2018-01-18T04:51:39.108Z,17.34
2018-01-18T04:54:04.917Z,17.20
2018-01-18T04:56:31.510Z,17.33
2018-01-18T04:58:57.321Z,17.29
2018-01-18T05:01:23.089Z,17.30
2018-01-18T05:03:48.874Z,17.36
2018-01-18T05:06:14.653Z,17.46
2018-01-18T05:08:41.269Z,17.38
2018-01-18T05:11:07.041Z,17.14
2018-01-18T05:13:32.810Z,17.21
2018-01-18T05:15:58.589Z,17.11
2018-01-18T05:18:24.464Z,17.22
2018-01-18T05:20:50.225Z,17.24
2018-01-18T05:23:15.997Z,17.30
2018-01-18T05:25:41.770Z,17.23
2018-01-18T05:28:07.549Z,17.27
2018-01-18T05:30:33.322Z,17.21
2018-01-18T05:32:59.101Z,17.11
2018-01-18T05:35:24.922Z,17.12
2018-01-18T05:37:50.701Z,17.19
2018-01-18T05:40:16.508Z,17.19
2018-01-18T05:42:42.289Z,17.39
2018-01-18T05:45:08.850Z,17.26
2018-01-18T05:47:34.617Z,17.28
2018-01-18T05:50:01.277Z,17.29
2018-01-18T05:52:28.095Z,17.30
2018-01-18T05:54:54.861Z,17.30
2018-01-18T05:57:21.642Z,17.39
2018-01-18T05:59:47.542Z,17.31
2018-01-18T06:02:13.353Z,17.32
2018-01-18T06:04:39.134Z,17.28
2018-01-18T06:07:04.937Z,17.28
2018-01-18T06:09:30.725Z,17.38
2018-01-18T06:11:56.491Z,17.20
2018-01-18T06:14:23.250Z,17.17
2018-01-18T06:16:49.017Z,17.24
2018-01-18T06:19:14.790Z,17.19
2018-01-18T06:21:41.614Z,17.32
2018-01-18T06:24:08.335Z,17.21
2018-01-18T06:26:34.109Z,17.21
2018-01-18T06:28:59.883Z,17.19
2018-01-18T06:31:25.650Z,17.23
2018-01-18T06:33:51.426Z,17.27
2018-01-18T06:36:17.206Z,17.36
2018-01-18T06:38:43.838Z,17.29
2018-01-18T06:41:09.606Z,17.30
2018-01-18T06:43:36.348Z,17.13
2018-01-18T06:46:02.118Z,17.20
2018-01-18T06:48:27.901Z,17.27
2018-01-18T06:50:53.707Z,17.31
2018-01-18T06:53:20.424Z,17.26
2018-01-18T06:55:47.153Z,17.22
2018-01-18T06:58:12.917Z,17.25
2018-01-18T07:00:38.697Z,17.32
2018-01-18T07:03:04.513Z,17.25
2018-01-18T07:05:31.290Z,17.21
2018-01-18T07:07:57.057Z,17.30
2018-01-18T07:10:22.829Z,17.24
2018-01-18T07:12:48.602Z,17.34
2018-01-18T07:15:15.153Z,17.27
2018-01-18T07:17:40.922Z,17.27
2018-01-18T07:20:06.700Z,17.19
2018-01-18T07:22:32.466Z,17.16
2018-01-18T07:24:58.283Z,17.24
2018-01-18T07:27:24.059Z,17.23
2018-01-18T07:29:49.833Z,17.23
2018-01-18T07:32:15.609Z,17.32
2018-01-18T07:34:41.377Z,17.18
2018-01-18T07:37:07.152Z,17.27
2018-01-18T07:39:32.933Z,17.36
2018-01-18T07:41:58.705Z,17.20
2018-01-18T07:44:24.498Z,17.14
2018-01-18T07:46:50.264Z,17.16
2018-01-18T07:49:16.062Z,17.27
2018-01-18T07:51:41.833Z,17.16
2018-01-18T07:54:07.614Z,17.25
2018-01-18T07:56:33.414Z,17.27
2018-01-18T07:59:00.121Z,17.23
2018-01-18T08:01:25.897Z,17.31
2018-01-18T08:03:58.613Z,17.38
2018-01-18T08:06:24.438Z,17.21
2018-01-18T08:08:50.985Z,17.23
2018-01-18T08:11:17.690Z,17.18
2018-01-18T08:13:43.466Z,17.18
2018-01-18T08:16:10.269Z,17.42
2018-01-18T08:18:37.036Z,17.28
2018-01-18T08:21:03.817Z,17.16
2018-01-18T08:23:30.542Z,17.20
2018-01-18T08:25:57.297Z,17.37
2018-01-18T08:28:23.104Z,17.26
2018-01-18T08:30:48.881Z,17.17
2018-01-18T08:33:14.691Z,17.12
2018-01-18T08:35:40.458Z,17.29
2018-01-18T08:38:07.225Z,17.24
2018-01-18T08:40:32.999Z,17.34
2018-01-18T08:42:58.946Z,17.31
2018-01-18T08:45:24.762Z,17.29
2018-01-18T08:47:50.580Z,17.26
2018-01-18T08:50:16.392Z,17.32
2018-01-18T08:52:43.121Z,17.32
2018-01-18T08:55:09.890Z,17.27
2018-01-18T08:57:36.489Z,17.21
2018-01-18T09:00:02.266Z,17.40
2018-01-18T09:02:28.077Z,17.34
2018-01-18T09:04:53.844Z,17.27
2018-01-18T09:07:19.813Z,17.25
2018-01-18T09:09:46.461Z,17.19
2018-01-18T09:12:13.305Z,17.43
2018-01-18T09:14:39.083Z,17.29
2018-01-18T09:17:04.866Z,17.36
2018-01-18T09:19:30.650Z,17.38
2018-01-18T09:21:56.425Z,17.28
2018-01-18T09:24:22.202Z,17.43
2018-01-18T09:26:47.980Z,17.35
2018-01-18T09:29:13.756Z,17.34
2018-01-18T09:31:39.536Z,17.41
2018-01-18T09:34:05.351Z,17.17
2018-01-18T09:36:31.129Z,17.28
2018-01-18T09:38:56.962Z,17.32
2018-01-18T09:41:22.756Z,17.45
2018-01-18T09:43:48.536Z,17.33
2018-01-18T09:46:15.342Z,17.21
2018-01-18T09:48:41.197Z,17.31
2018-01-18T09:51:07.005Z,17.25
2018-01-18T09:53:32.781Z,17.30
2018-01-18T09:55:58.597Z,17.24
2018-01-18T09:58:25.210Z,17.39
2018-01-18T10:00:51.997Z,17.22
2018-01-18T10:03:18.616Z,17.41
2018-01-18T10:05:45.482Z,17.29
2018-01-18T10:08:11.303Z,17.23
2018-01-18T10:10:37.078Z,17.26
2018-01-18T10:13:02.850Z,17.19
2018-01-18T10:15:28.626Z,17.11
2018-01-18T10:17:54.397Z,17.20
2018-01-18T10:20:20.174Z,17.08
2018-01-18T10:22:46.897Z,17.14
2018-01-18T10:25:12.917Z,17.05
2018-01-18T10:27:38.704Z,17.04
2018-01-18T10:30:04.478Z,17.06
2018-01-18T10:32:30.457Z,17.11
2018-01-18T10:34:57.196Z,17.03
2018-01-18T10:37:23.005Z,16.98
2018-01-18T10:39:48.793Z,17.05
2018-01-18T10:42:14.583Z,17.05
2018-01-18T10:44:40.414Z,17.08
2018-01-18T10:47:06.216Z,17.07
2018-01-18T10:49:31.980Z,17.12
2018-01-18T10:51:57.749Z,17.03
2018-01-18T10:54:24.374Z,17.02
2018-01-18T10:56:51.237Z,17.11
2018-01-18T10:59:17.033Z,17.09
2018-01-18T11:01:42.850Z,17.19
2018-01-18T11:04:08.630Z,17.05
2018-01-18T11:06:34.436Z,17.05
2018-01-18T11:09:00.209Z,17.06
2018-01-18T11:11:26.114Z,17.06
2018-01-18T11:13:52.090Z,17.07
2018-01-18T11:16:21.086Z,17.18
2018-01-18T11:18:47.901Z,17.14
2018-01-18T11:21:14.225Z,16.96
2018-01-18T11:23:40.893Z,17.05
2018-01-18T11:26:06.876Z,17.11
2018-01-18T11:28:32.755Z,17.00
2018-01-18T11:30:58.604Z,17.10
2018-01-18T11:33:24.504Z,17.16
2018-01-18T11:35:50.277Z,17.08
2018-01-18T11:38:16.883Z,17.07
2018-01-18T11:40:43.638Z,16.94
2018-01-18T11:43:09.409Z,16.98
2018-01-18T11:45:35.182Z,17.02
2018-01-18T11:48:00.961Z,16.99
2018-01-18T11:50:26.748Z,16.99
2018-01-18T11:52:52.517Z,17.05
2018-01-18T11:55:18.429Z,17.09
2018-01-18T11:57:44.452Z,17.11
2018-01-18T12:00:10.265Z,17.08
2018-01-18T12:02:36.037Z,17.04
2018-01-18T12:05:01.825Z,17.04
2018-01-18T12:07:30.106Z,17.02
2018-01-18T12:09:56.116Z,17.12
2018-01-18T12:12:21.929Z,17.24
2018-01-18T12:17:33.248Z,16.95
2018-01-18T12:19:59.153Z,17.01
2018-01-18T12:22:24.929Z,16.94
2018-01-18T12:24:50.797Z,17.06
2018-01-18T12:27:16.573Z,17.06
2018-01-18T12:29:42.389Z,17.09
2018-01-18T12:32:08.180Z,17.15
2018-01-18T12:34:33.953Z,17.07
2018-01-18T12:36:59.725Z,17.06
2018-01-18T12:39:25.544Z,17.14
2018-01-18T12:41:51.444Z,17.09
2018-01-18T12:44:17.221Z,17.14
2018-01-18T12:46:42.997Z,17.14
2018-01-18T12:49:08.770Z,17.12
2018-01-18T12:51:36.253Z,17.29
2018-01-18T12:54:03.608Z,17.26
2018-01-18T12:56:29.416Z,17.14
2018-01-18T12:58:55.198Z,17.17
2018-01-18T13:01:20.990Z,17.15
2018-01-18T13:03:46.773Z,17.18
2018-01-18T13:06:12.594Z,17.20
2018-01-18T13:08:38.406Z,17.22
2018-01-18T13:11:04.217Z,17.21
2018-01-18T13:13:29.993Z,17.16
2018-01-18T13:15:55.770Z,17.22
2018-01-18T13:18:21.593Z,17.14
2018-01-18T13:20:47.373Z,17.17
2018-01-18T13:23:13.193Z,17.33
2018-01-18T13:25:39.993Z,17.23
2018-01-18T13:28:05.765Z,17.25
2018-01-18T13:30:32.525Z,17.23
2018-01-18T13:32:58.303Z,17.21
2018-01-18T13:35:24.108Z,17.32
2018-01-18T13:37:50.813Z,17.24
2018-01-18T13:40:16.668Z,17.40
2018-01-18T13:42:42.450Z,17.28
2018-01-18T13:45:09.285Z,17.37
2018-01-18T13:47:36.009Z,17.34
2018-01-18T13:50:02.425Z,17.40
2018-01-18T13:52:28.198Z,17.32
2018-01-18T13:54:53.989Z,17.47
2018-01-18T13:57:20.706Z,17.48
2018-01-18T13:59:46.473Z,17.35
2018-01-18T14:02:12.419Z,17.27
2018-01-18T14:04:38.281Z,17.33
2018-01-18T14:07:04.178Z,17.30
2018-01-18T14:09:29.967Z,17.52
2018-01-18T14:11:55.778Z,17.43
2018-01-18T14:14:21.594Z,17.49
2018-01-18T14:16:47.368Z,17.40
2018-01-18T14:19:14.047Z,17.36
2018-01-18T14:21:39.829Z,17.37
2018-01-18T14:24:05.670Z,17.38
2018-01-18T14:26:31.902Z,17.45
2018-01-18T14:28:58.793Z,17.42
2018-01-18T14:31:24.609Z,17.42
2018-01-18T14:33:50.401Z,17.59
2018-01-18T14:36:17.247Z,17.59
2018-01-18T14:38:43.169Z,17.65
2018-01-18T14:41:09.762Z,17.66
2018-01-18T14:43:36.511Z,17.70
2018-01-18T14:46:03.138Z,17.72
2018-01-18T14:48:29.822Z,17.74
2018-01-18T14:50:55.622Z,17.74
2018-01-18T14:53:21.393Z,17.71
2018-01-18T14:55:47.166Z,17.70
2018-01-18T14:58:12.936Z,17.69
2018-01-18T15:00:38.981Z,17.85
2018-01-18T15:03:04.753Z,17.74
2018-01-18T15:05:31.542Z,17.73
2018-01-18T15:07:57.324Z,17.67
2018-01-18T15:10:23.097Z,17.80
2018-01-18T15:12:48.876Z,17.73
2018-01-18T15:15:14.973Z,17.77
2018-01-18T15:17:40.762Z,17.74
2018-01-18T15:20:06.710Z,17.67
2018-01-18T15:22:32.485Z,17.57
2018-01-18T15:24:58.256Z,17.57
2018-01-18T15:27:24.938Z,17.51
2018-01-18T15:29:50.704Z,17.53
2018-01-18T15:32:16.669Z,17.67
2018-01-18T15:34:42.437Z,17.63
2018-01-18T15:37:08.304Z,17.65
2018-01-18T15:39:35.126Z,17.71
2018-01-18T15:42:00.897Z,17.64
2018-01-18T15:44:26.669Z,17.53
2018-01-18T15:46:52.461Z,17.50
2018-01-18T15:49:18.234Z,17.61
2018-01-18T15:51:44.005Z,17.65
2018-01-18T15:54:09.941Z,17.64
2018-01-18T15:56:35.723Z,17.69
2018-01-18T15:59:01.701Z,17.65
2018-01-18T16:01:27.482Z,17.70
2018-01-18T16:03:53.249Z,17.68
2018-01-18T16:06:19.045Z,17.66
2018-01-18T16:08:44.821Z,17.66
2018-01-18T16:11:10.602Z,17.71
2018-01-18T16:13:36.375Z,18.14
2018-01-18T16:16:02.314Z,18.12
2018-01-18T16:18:28.091Z,18.53
2018-01-18T16:20:53.861Z,18.54
2018-01-18T16:23:19.634Z,18.55
2018-01-18T16:25:45.444Z,18.83
2018-01-18T16:28:11.234Z,18.80
2018-01-18T16:30:37.841Z,18.61
2018-01-18T16:33:04.690Z,18.68
2018-01-18T16:35:30.498Z,18.65
2018-01-18T16:37:56.302Z,18.61
2018-01-18T16:40:22.884Z,18.47
2018-01-18T16:42:48.699Z,18.59
2018-01-18T16:45:14.509Z,18.58
2018-01-18T16:47:40.284Z,18.55
2018-01-18T16:50:06.105Z,18.51
2018-01-18T16:52:32.506Z,18.54
2018-01-18T16:54:58.284Z,18.42
2018-01-18T16:57:24.961Z,18.22
2018-01-18T16:59:50.736Z,18.29
2018-01-18T17:02:16.543Z,18.42
2018-01-18T17:04:43.325Z,18.44
2018-01-18T17:07:10.086Z,18.36
2018-01-18T17:09:36.738Z,18.35
2018-01-18T17:12:03.509Z,18.21
2018-01-18T17:14:29.328Z,18.17
2018-01-18T17:17:02.001Z,18.27
2018-01-18T17:19:27.817Z,18.27
2018-01-18T17:21:53.646Z,18.26
2018-01-18T17:24:19.421Z,18.27
2018-01-18T17:26:45.230Z,18.18
2018-01-18T17:29:11.053Z,18.22
2018-01-18T17:31:36.821Z,18.25
2018-01-18T17:34:02.621Z,18.29
2018-01-18T17:36:29.466Z,18.17
2018-01-18T17:38:55.238Z,18.15
2018-01-18T17:41:21.149Z,18.18
2018-01-18T17:43:46.925Z,18.37
2018-01-18T17:46:13.536Z,18.46
2018-01-18T17:48:39.341Z,18.50
2018-01-18T17:51:05.148Z,18.62
2018-01-18T17:53:31.766Z,18.73
2018-01-18T17:55:58.389Z,18.56
2018-01-18T17:58:25.186Z,18.48
2018-01-18T18:00:51.942Z,18.56
2018-01-18T18:03:17.987Z,18.66
2018-01-18T18:05:45.076Z,18.67
2018-01-18T18:08:11.110Z,18.64
2018-01-18T18:10:36.913Z,18.61
2018-01-18T18:13:02.764Z,18.40
2018-01-18T18:15:28.745Z,18.35
2018-01-18T18:17:54.521Z,18.45
2018-01-18T18:20:20.413Z,18.49
2018-01-18T18:22:46.181Z,18.43
2018-01-18T18:25:12.098Z,18.55
2018-01-18T18:27:37.869Z,18.56
2018-01-18T18:30:03.646Z,18.43
2018-01-18T18:32:30.437Z,18.57
2018-01-18T18:34:56.201Z,18.63
2018-01-18T18:37:22.838Z,18.68
2018-01-18T18:39:49.529Z,18.55
2018-01-18T18:42:15.366Z,18.51
2018-01-18T18:44:41.148Z,18.31
2018-01-18T18:47:07.939Z,18.37
2018-01-18T18:49:33.709Z,18.46
2018-01-18T18:51:59.653Z,18.53
2018-01-18T18:54:25.430Z,18.57
2018-01-18T18:56:51.200Z,18.53
2018-01-18T18:59:16.973Z,18.36
2018-01-18T19:01:42.742Z,18.25
2018-01-18T19:04:09.378Z,18.27
2018-01-18T19:06:35.153Z,18.32
2018-01-18T19:09:01.046Z,18.52
2018-01-18T19:11:26.817Z,18.68
2018-01-18T19:13:52.584Z,18.68
2018-01-18T19:16:18.357Z,18.69
2018-01-18T19:18:44.274Z,18.64
2018-01-18T19:21:10.162Z,18.49
2018-01-18T19:23:36.015Z,18.56
2018-01-18T19:26:02.058Z,18.63
2018-01-18T19:28:27.877Z,18.57
2018-01-18T19:30:53.793Z,18.63
2018-01-18T19:33:19.731Z,18.62
2018-01-18T19:35:45.924Z,18.58
2018-01-18T19:38:12.044Z,18.57
2018-01-18T19:40:38.280Z,18.73
2018-01-18T19:43:04.593Z,18.78
2018-01-18T19:45:30.656Z,18.74
2018-01-18T19:47:56.755Z,18.78
2018-01-18T19:50:24.744Z,18.80
2018-01-18T19:52:50.514Z,18.67
2018-01-18T19:55:16.643Z,18.71
2018-01-18T19:57:42.457Z,18.73
2018-01-18T20:00:08.513Z,18.72
2018-01-18T20:02:34.613Z,18.68
2018-01-18T20:05:00.440Z,18.67
2018-01-18T20:07:26.208Z,18.59
2018-01-18T20:09:52.056Z,18.53
2018-01-18T20:12:17.981Z,18.59
2018-01-18T20:14:43.801Z,18.68
2018-01-18T20:17:09.633Z,18.76
2018-01-18T20:19:36.317Z,18.82
2018-01-18T20:22:02.376Z,18.74
2018-01-18T20:24:28.190Z,18.69
2018-01-18T20:26:53.985Z,18.75
2018-01-18T20:29:19.793Z,18.72
2018-01-18T20:31:45.604Z,18.83
2018-01-18T20:34:11.513Z,18.83
2018-01-18T20:36:38.228Z,18.73
2018-01-18T20:39:04.027Z,18.50
2018-01-18T20:41:29.810Z,18.60
2018-01-18T20:43:55.585Z,18.64
2018-01-18T20:46:21.358Z,18.61
2018-01-18T20:48:47.129Z,18.55
2018-01-18T20:51:12.945Z,18.62
2018-01-18T20:53:38.758Z,18.58
2018-01-18T20:56:04.534Z,18.55
2018-01-18T20:58:30.315Z,18.55
2018-01-18T21:00:56.175Z,18.53
2018-01-18T21:03:22.756Z,18.57
2018-01-18T21:05:48.554Z,18.56
2018-01-18T21:08:14.365Z,18.64
2018-01-18T21:10:40.280Z,18.84
2018-01-18T21:13:06.084Z,18.97
2018-01-18T21:15:31.854Z,19.04
2018-01-18T21:17:57.644Z,19.10
2018-01-18T21:20:24.277Z,18.75
2018-01-18T21:22:51.128Z,18.71
2018-01-18T21:25:17.757Z,18.71
2018-01-18T21:27:43.533Z,18.88
2018-01-18T21:30:09.296Z,18.86
2018-01-18T21:32:35.072Z,18.95
2018-01-18T21:35:01.713Z,18.93
2018-01-18T21:37:28.392Z,18.68
2018-01-18T21:39:54.169Z,18.71
2018-01-18T21:42:20.810Z,18.81
2018-01-18T21:44:46.584Z,18.80
2018-01-18T21:47:12.392Z,18.86
2018-01-18T21:49:39.157Z,18.75
2018-01-18T21:52:05.942Z,18.60
2018-01-18T21:54:31.800Z,18.57
2018-01-18T21:56:57.571Z,18.58
2018-01-18T21:59:23.440Z,18.67
2018-01-18T22:01:49.210Z,18.77
2018-01-18T22:04:16.341Z,18.69
2018-01-18T22:06:42.117Z,18.70
2018-01-18T22:09:07.881Z,18.54
2018-01-18T22:11:33.648Z,18.57
2018-01-18T22:13:59.410Z,18.53
2018-01-18T22:16:26.153Z,18.60
2018-01-18T22:18:51.957Z,18.54
2018-01-18T22:21:17.722Z,18.55
2018-01-18T22:23:44.457Z,18.51
2018-01-18T22:26:11.396Z,18.48
2018-01-18T22:28:37.169Z,18.50
2018-01-18T22:31:03.085Z,18.59
2018-01-18T22:33:29.678Z,18.59
2018-01-18T22:35:55.542Z,18.60
2018-01-18T22:38:21.301Z,18.48
2018-01-18T22:40:48.022Z,18.48
2018-01-18T22:43:13.854Z,18.46
2018-01-18T22:45:40.480Z,18.53
2018-01-18T22:48:06.241Z,18.52
2018-01-18T22:50:32.004Z,18.58
2018-01-18T22:52:57.769Z,18.54
2018-01-18T22:55:23.537Z,18.48
2018-01-18T22:57:49.471Z,18.55
2018-01-18T23:00:17.221Z,18.51
2018-01-18T23:02:43.150Z,18.63
2018-01-18T23:05:08.921Z,18.69
2018-01-18T23:07:34.690Z,18.81
2018-01-18T23:10:00.473Z,18.78
2018-01-18T23:12:26.301Z,18.69
2018-01-18T23:14:53.093Z,18.75
2018-01-18T23:17:18.857Z,18.68
2018-01-18T23:19:44.632Z,18.77
2018-01-18T23:22:10.409Z,18.81
2018-01-18T23:24:36.213Z,18.80
2018-01-18T23:27:01.981Z,18.81
2018-01-18T23:29:27.749Z,18.68
2018-01-18T23:31:53.529Z,18.67
2018-01-18T23:34:19.296Z,18.69
2018-01-18T23:36:45.061Z,18.67
2018-01-18T23:39:10.820Z,18.68
2018-01-18T23:41:36.586Z,18.72
2018-01-18T23:44:02.375Z,18.70
2018-01-18T23:46:28.161Z,18.69
2018-01-18T23:48:53.922Z,18.66
2018-01-18T23:51:19.700Z,18.69
2018-01-18T23:53:45.470Z,18.72
2018-01-18T23:56:11.238Z,18.67
2018-01-18T23:58:37.002Z,18.65
